»·PEaware :: N710DS KPHX-KNYL

N710DS :: KPHX-KNYL

FLIGHT INFORMATION

Flight Status: Arrived
Operator: Privately registered:
United States
More flights under this callsign
Pilot: John H. (10732)
Aircraft: Unknown
(B60T)
More flights by this aircraft type
Origin: KPHX Phoenix Sky Harbor Intl
United States
Destination: KNYL Yuma MCAS/Yuma Intl
United States
More flights between these airports :: More routes between these airports
Route: +MOBIE4 GBN CAZZI
File this flight plan on PilotEdge
Remarks:
Altitude:
(Current/Filed)
25,000ft
Speed:
(Current/Filed)
300kts
Departed: 24-Jun-19 06:54 PM
Arrived: 24-Jun-19 07:44 PM
Distance/Time
Traveled:
139nm/0:50
Distance/Time
To Go:
Arrived

Flight Plot

Page will automatically refresh every two minutes.

Flight plan parsing failed; only flown route is shown


Map Options




Map Legend


Flown Route
Filed Route
Departure Airport
Arrival Airport
Navaid (VOR, NDB)
Fix

Horizontal Profiles

Position Reports

Time Latitude Longitude Heading Altitude Ground
Speed
24-Jun-19 18:45 33.425580 -112.021281 179 1138ft 0kts
24-Jun-19 18:47 33.425580 -112.021281 179 1138ft 0kts
24-Jun-19 18:48 33.425580 -112.021281 179 1138ft 0kts
24-Jun-19 18:48 33.425580 -112.021281 179 1138ft 0kts
24-Jun-19 18:49 33.425580 -112.021281 179 1138ft 0kts
24-Jun-19 18:51 33.427081 -112.021834 1 1138ft 14kts
24-Jun-19 18:51 33.427772 -112.024829 269 1138ft 13kts
24-Jun-19 18:52 33.428411 -112.026935 357 1138ft 9kts
24-Jun-19 18:53 33.429864 -112.003004 84 2128ft 173kts
24-Jun-19 18:54 33.438305 -111.939880 74 5115ft 231kts
24-Jun-19 18:55 33.449917 -111.867751 96 7477ft 199kts
24-Jun-19 18:56 33.412857 -111.822184 170 9955ft 201kts
24-Jun-19 18:57 33.371338 -111.857215 269 12003ft 222kts
24-Jun-19 18:58 33.353828 -111.919690 203 15124ft 218kts
24-Jun-19 18:59 33.306558 -111.951665 228 19089ft 185kts
24-Jun-19 19:00 33.273554 -111.999600 237 23105ft 186kts
24-Jun-19 19:01 33.237514 -112.055810 237 24820ft 263kts
24-Jun-19 19:02 33.189118 -112.129907 236 24912ft 293kts
24-Jun-19 19:03 33.139577 -112.205639 236 25785ft 295kts
24-Jun-19 19:04 33.087582 -112.285045 236 25805ft 309kts
24-Jun-19 19:05 33.052119 -112.376524 253 25804ft 306kts
24-Jun-19 19:06 33.021476 -112.471436 253 25815ft 307kts
24-Jun-19 19:07 32.990926 -112.566241 253 25802ft 307kts
24-Jun-19 19:08 32.960695 -112.661025 257 25799ft 304kts
24-Jun-19 19:09 32.955371 -112.759604 271 25796ft 298kts
24-Jun-19 19:10 32.953491 -112.858359 272 25795ft 298kts
24-Jun-19 19:11 32.951966 -112.957069 272 25793ft 298kts
24-Jun-19 19:12 32.950453 -113.055785 271 25788ft 298kts
24-Jun-19 19:13 32.948874 -113.154610 271 25787ft 298kts
24-Jun-19 19:14 32.947224 -113.253456 271 25781ft 299kts
24-Jun-19 19:15 32.945478 -113.352910 271 25112ft 299kts
24-Jun-19 19:16 32.943721 -113.450181 270 23821ft 285kts
24-Jun-19 19:17 32.941944 -113.544518 270 22362ft 286kts
24-Jun-19 19:18 32.940047 -113.639863 269 20858ft 288kts
24-Jun-19 19:19 32.938247 -113.726782 269 19496ft 290kts
24-Jun-19 19:20 32.936173 -113.822847 269 17997ft 289kts
24-Jun-19 19:21 32.934048 -113.918443 268 16493ft 286kts
24-Jun-19 19:22 32.931974 -114.009784 268 16003ft 261kts
24-Jun-19 19:23 32.930008 -114.095219 269 16003ft 257kts
24-Jun-19 19:24 32.928126 -114.180153 268 15999ft 257kts
24-Jun-19 19:25 32.926027 -114.265206 268 15999ft 256kts
24-Jun-19 19:26 32.927385 -114.351259 290 15247ft 271kts
24-Jun-19 19:27 32.984657 -114.407786 329 13870ft 272kts
24-Jun-19 19:28 33.049656 -114.450653 330 12471ft 261kts
24-Jun-19 19:29 33.113023 -114.491644 330 11076ft 257kts
24-Jun-19 19:30 33.174063 -114.534289 310 9679ft 252kts
24-Jun-19 19:31 33.159430 -114.603386 203 8284ft 252kts
24-Jun-19 19:32 33.089548 -114.605922 184 6903ft 249kts
24-Jun-19 19:33 33.021347 -114.614761 188 5509ft 243kts
24-Jun-19 19:34 32.955459 -114.624826 187 4160ft 209kts
24-Jun-19 19:35 32.910974 -114.629635 175 3806ft 134kts
24-Jun-19 19:36 32.881626 -114.587585 94 3107ft 205kts
24-Jun-19 19:37 32.865854 -114.525229 124 3098ft 195kts
24-Jun-19 19:38 32.823430 -114.479394 153 3100ft 218kts
24-Jun-19 19:39 32.766756 -114.481283 209 3091ft 204kts
24-Jun-19 19:40 32.723413 -114.529267 221 1990ft 220kts
24-Jun-19 19:41 32.691015 -114.567401 221 1020ft 114kts
24-Jun-19 19:42 32.669779 -114.591769 221 430ft 83kts
24-Jun-19 19:43 32.661444 -114.601044 220 219ft 0kts
24-Jun-19 19:44 32.660357 -114.602378 224 219ft 11kts
24-Jun-19 19:45 32.660002 -114.604891 272 219ft 12kts
24-Jun-19 19:46 32.660216 -114.609330 19 219ft 26kts
24-Jun-19 19:47 32.661990 -114.608737 158 219ft 7kts
24-Jun-19 19:48 32.662822 -114.609084 359 219ft 0kts

Navigation Log

Ident Type
Flight plan parsing failed, navigation log unavailable